sensor_id;sensor_type;location;lat;lon;timestamp;P1;durP1;ratioP1;P2;durP2;ratioP2
21402;SDS011;10862;51.886;17.078;2023-02-12T00:02:14;6.77;;;6.47;;
21402;SDS011;10862;51.886;17.078;2023-02-12T00:04:40;7.77;;;7.37;;
21402;SDS011;10862;51.886;17.078;2023-02-12T00:07:06;9.23;;;8.73;;
21402;SDS011;10862;51.886;17.078;2023-02-12T00:09:32;10.17;;;9.60;;
21402;SDS011;10862;51.886;17.078;2023-02-12T00:11:58;14.13;;;13.13;;
21402;SDS011;10862;51.886;17.078;2023-02-12T00:14:24;8.50;;;8.03;;
21402;SDS011;10862;51.886;17.078;2023-02-12T00:16:49;14.50;;;13.47;;
21402;SDS011;10862;51.886;17.078;2023-02-12T00:19:15;14.27;;;13.40;;
21402;SDS011;10862;51.886;17.078;2023-02-12T00:21:41;8.03;;;7.73;;
21402;SDS011;10862;51.886;17.078;2023-02-12T00:24:07;13.03;;;12.27;;
21402;SDS011;10862;51.886;17.078;2023-02-12T00:26:32;11.20;;;10.53;;
21402;SDS011;10862;51.886;17.078;2023-02-12T00:29:00;11.67;;;11.07;;
21402;SDS011;10862;51.886;17.078;2023-02-12T00:31:26;13.80;;;13.03;;
21402;SDS011;10862;51.886;17.078;2023-02-12T00:33:53;15.13;;;14.10;;
21402;SDS011;10862;51.886;17.078;2023-02-12T00:36:20;10.13;;;9.63;;
21402;SDS011;10862;51.886;17.078;2023-02-12T00:38:49;14.67;;;13.23;;
21402;SDS011;10862;51.886;17.078;2023-02-12T00:41:16;11.93;;;11.30;;
21402;SDS011;10862;51.886;17.078;2023-02-12T00:43:43;12.23;;;11.30;;
21402;SDS011;10862;51.886;17.078;2023-02-12T00:46:09;12.47;;;11.70;;
21402;SDS011;10862;51.886;17.078;2023-02-12T00:48:35;11.07;;;10.47;;
21402;SDS011;10862;51.886;17.078;2023-02-12T00:51:01;9.70;;;9.13;;
21402;SDS011;10862;51.886;17.078;2023-02-12T00:53:27;8.00;;;7.60;;
21402;SDS011;10862;51.886;17.078;2023-02-12T00:55:54;7.03;;;6.73;;
21402;SDS011;10862;51.886;17.078;2023-02-12T00:58:19;7.93;;;7.57;;
21402;SDS011;10862;51.886;17.078;2023-02-12T01:00:46;7.13;;;6.83;;
21402;SDS011;10862;51.886;17.078;2023-02-12T01:03:11;7.83;;;7.47;;
21402;SDS011;10862;51.886;17.078;2023-02-12T01:05:37;7.50;;;7.20;;
21402;SDS011;10862;51.886;17.078;2023-02-12T01:08:03;7.43;;;7.03;;
21402;SDS011;10862;51.886;17.078;2023-02-12T01:10:29;8.30;;;8.00;;
21402;SDS011;10862;51.886;17.078;2023-02-12T01:13:01;11.63;;;10.93;;
21402;SDS011;10862;51.886;17.078;2023-02-12T01:15:27;10.00;;;9.50;;
21402;SDS011;10862;51.886;17.078;2023-02-12T01:17:53;8.00;;;7.70;;
21402;SDS011;10862;51.886;17.078;2023-02-12T01:20:20;8.60;;;8.20;;
21402;SDS011;10862;51.886;17.078;2023-02-12T01:22:47;8.43;;;8.00;;
21402;SDS011;10862;51.886;17.078;2023-02-12T01:25:13;9.80;;;9.27;;
21402;SDS011;10862;51.886;17.078;2023-02-12T01:27:38;9.80;;;8.57;;
21402;SDS011;10862;51.886;17.078;2023-02-12T01:30:05;7.23;;;6.93;;
21402;SDS011;10862;51.886;17.078;2023-02-12T01:32:34;7.43;;;7.13;;
21402;SDS011;10862;51.886;17.078;2023-02-12T01:35:00;5.30;;;5.10;;
21402;SDS011;10862;51.886;17.078;2023-02-12T01:37:26;6.33;;;6.03;;
21402;SDS011;10862;51.886;17.078;2023-02-12T01:39:52;5.60;;;5.40;;
21402;SDS011;10862;51.886;17.078;2023-02-12T01:42:17;8.73;;;8.10;;
21402;SDS011;10862;51.886;17.078;2023-02-12T01:47:35;7.20;;;6.90;;
21402;SDS011;10862;51.886;17.078;2023-02-12T01:50:01;7.70;;;7.30;;
21402;SDS011;10862;51.886;17.078;2023-02-12T01:52:30;6.87;;;6.57;;
21402;SDS011;10862;51.886;17.078;2023-02-12T01:54:59;6.20;;;6.00;;
21402;SDS011;10862;51.886;17.078;2023-02-12T01:57:28;7.33;;;6.83;;
21402;SDS011;10862;51.886;17.078;2023-02-12T01:59:57;6.83;;;6.53;;
21402;SDS011;10862;51.886;17.078;2023-02-12T02:02:26;5.70;;;5.50;;
21402;SDS011;10862;51.886;17.078;2023-02-12T02:04:56;6.90;;;6.57;;
21402;SDS011;10862;51.886;17.078;2023-02-12T02:07:26;10.43;;;9.80;;
21402;SDS011;10862;51.886;17.078;2023-02-12T02:09:52;7.20;;;6.80;;
21402;SDS011;10862;51.886;17.078;2023-02-12T02:12:19;7.03;;;6.73;;
21402;SDS011;10862;51.886;17.078;2023-02-12T02:15:04;9.77;;;9.00;;
21402;SDS011;10862;51.886;17.078;2023-02-12T02:26:07;9.40;;;8.67;;
21402;SDS011;10862;51.886;17.078;2023-02-12T02:31:40;23.90;;;8.80;;
21402;SDS011;10862;51.886;17.078;2023-02-12T02:34:17;9.37;;;8.87;;
21402;SDS011;10862;51.886;17.078;2023-02-12T02:39:59;9.20;;;8.80;;
21402;SDS011;10862;51.886;17.078;2023-02-12T02:45:12;8.73;;;8.33;;
21402;SDS011;10862;51.886;17.078;2023-02-12T02:47:57;9.43;;;8.93;;
21402;SDS011;10862;51.886;17.078;2023-02-12T02:50:28;8.43;;;8.07;;
21402;SDS011;10862;51.886;17.078;2023-02-12T02:53:00;10.40;;;9.70;;
21402;SDS011;10862;51.886;17.078;2023-02-12T02:55:32;10.33;;;9.83;;
21402;SDS011;10862;51.886;17.078;2023-02-12T02:58:10;12.33;;;11.10;;
21402;SDS011;10862;51.886;17.078;2023-02-12T03:00:39;10.27;;;9.57;;
21402;SDS011;10862;51.886;17.078;2023-02-12T03:04:07;9.37;;;8.87;;
21402;SDS011;10862;51.886;17.078;2023-02-12T03:06:21;8.47;;;8.07;;
21402;SDS011;10862;51.886;17.078;2023-02-12T03:08:59;10.27;;;9.47;;
21402;SDS011;10862;51.886;17.078;2023-02-12T03:11:30;8.80;;;8.37;;
21402;SDS011;10862;51.886;17.078;2023-02-12T03:19:20;13.13;;;9.97;;
21402;SDS011;10862;51.886;17.078;2023-02-12T03:22:11;6.87;;;6.33;;
21402;SDS011;10862;51.886;17.078;2023-02-12T03:24:45;8.43;;;8.03;;
21402;SDS011;10862;51.886;17.078;2023-02-12T03:27:19;9.00;;;8.43;;
21402;SDS011;10862;51.886;17.078;2023-02-12T03:29:50;7.97;;;7.33;;
21402;SDS011;10862;51.886;17.078;2023-02-12T03:32:32;14.90;;;7.80;;
21402;SDS011;10862;51.886;17.078;2023-02-12T03:37:45;40.40;;;9.43;;
21402;SDS011;10862;51.886;17.078;2023-02-12T03:40:29;25.67;;;19.33;;
21402;SDS011;10862;51.886;17.078;2023-02-12T03:43:01;90.17;;;29.83;;
21402;SDS011;10862;51.886;17.078;2023-02-12T03:48:27;11.27;;;10.43;;
21402;SDS011;10862;51.886;17.078;2023-02-12T03:51:31;10.67;;;9.63;;
21402;SDS011;10862;51.886;17.078;2023-02-12T03:53:59;14.73;;;13.10;;
21402;SDS011;10862;51.886;17.078;2023-02-12T03:59:21;13.10;;;12.13;;
21402;SDS011;10862;51.886;17.078;2023-02-12T04:01:48;7.03;;;6.73;;
21402;SDS011;10862;51.886;17.078;2023-02-12T04:04:16;5.63;;;5.43;;
21402;SDS011;10862;51.886;17.078;2023-02-12T04:06:43;9.03;;;8.43;;
21402;SDS011;10862;51.886;17.078;2023-02-12T04:09:12;8.47;;;8.07;;
21402;SDS011;10862;51.886;17.078;2023-02-12T04:14:28;13.77;;;12.90;;
21402;SDS011;10862;51.886;17.078;2023-02-12T04:19:59;15.87;;;14.60;;
21402;SDS011;10862;51.886;17.078;2023-02-12T04:22:53;9.70;;;5.60;;
21402;SDS011;10862;51.886;17.078;2023-02-12T04:25:47;7.00;;;6.37;;
21402;SDS011;10862;51.886;17.078;2023-02-12T04:31:07;15.90;;;10.37;;
21402;SDS011;10862;51.886;17.078;2023-02-12T04:33:46;10.53;;;9.93;;
21402;SDS011;10862;51.886;17.078;2023-02-12T04:36:19;24.33;;;10.37;;
21402;SDS011;10862;51.886;17.078;2023-02-12T04:38:51;9.10;;;8.43;;
21402;SDS011;10862;51.886;17.078;2023-02-12T04:41:21;5.47;;;5.27;;
21402;SDS011;10862;51.886;17.078;2023-02-12T04:43:48;7.73;;;7.03;;
21402;SDS011;10862;51.886;17.078;2023-02-12T04:46:14;5.03;;;4.83;;
21402;SDS011;10862;51.886;17.078;2023-02-12T04:48:55;4.30;;;4.10;;
21402;SDS011;10862;51.886;17.078;2023-02-12T04:51:22;6.27;;;5.97;;
21402;SDS011;10862;51.886;17.078;2023-02-12T04:53:48;9.10;;;8.47;;
21402;SDS011;10862;51.886;17.078;2023-02-12T04:56:15;8.20;;;7.70;;
21402;SDS011;10862;51.886;17.078;2023-02-12T04:58:41;8.77;;;8.27;;
21402;SDS011;10862;51.886;17.078;2023-02-12T05:01:07;12.27;;;10.87;;
21402;SDS011;10862;51.886;17.078;2023-02-12T05:03:34;11.20;;;10.20;;
21402;SDS011;10862;51.886;17.078;2023-02-12T05:06:04;6.77;;;6.17;;
21402;SDS011;10862;51.886;17.078;2023-02-12T05:08:31;8.37;;;7.67;;
21402;SDS011;10862;51.886;17.078;2023-02-12T05:11:01;7.77;;;7.30;;
21402;SDS011;10862;51.886;17.078;2023-02-12T05:13:31;6.17;;;5.87;;
21402;SDS011;10862;51.886;17.078;2023-02-12T05:15:57;6.73;;;6.23;;
21402;SDS011;10862;51.886;17.078;2023-02-12T05:18:23;7.43;;;7.13;;
21402;SDS011;10862;51.886;17.078;2023-02-12T05:20:54;5.47;;;5.27;;
21402;SDS011;10862;51.886;17.078;2023-02-12T05:23:30;9.97;;;9.27;;
21402;SDS011;10862;51.886;17.078;2023-02-12T05:25:58;7.03;;;6.63;;
21402;SDS011;10862;51.886;17.078;2023-02-12T05:28:26;7.63;;;7.23;;
21402;SDS011;10862;51.886;17.078;2023-02-12T05:30:52;7.80;;;7.20;;
21402;SDS011;10862;51.886;17.078;2023-02-12T05:33:18;7.30;;;6.90;;
21402;SDS011;10862;51.886;17.078;2023-02-12T05:35:43;11.90;;;7.60;;
21402;SDS011;10862;51.886;17.078;2023-02-12T05:38:09;5.67;;;5.40;;
21402;SDS011;10862;51.886;17.078;2023-02-12T05:40:35;5.57;;;5.30;;
21402;SDS011;10862;51.886;17.078;2023-02-12T05:43:01;12.90;;;11.53;;
21402;SDS011;10862;51.886;17.078;2023-02-12T05:45:27;7.67;;;7.27;;
21402;SDS011;10862;51.886;17.078;2023-02-12T05:47:53;7.47;;;7.07;;
21402;SDS011;10862;51.886;17.078;2023-02-12T05:50:21;15.30;;;14.43;;
21402;SDS011;10862;51.886;17.078;2023-02-12T05:52:46;9.63;;;9.13;;
21402;SDS011;10862;51.886;17.078;2023-02-12T05:55:12;11.23;;;10.43;;
21402;SDS011;10862;51.886;17.078;2023-02-12T05:57:38;10.73;;;10.13;;
21402;SDS011;10862;51.886;17.078;2023-02-12T06:00:05;12.10;;;8.33;;
21402;SDS011;10862;51.886;17.078;2023-02-12T06:02:35;9.10;;;8.47;;
21402;SDS011;10862;51.886;17.078;2023-02-12T06:05:01;8.17;;;7.77;;
21402;SDS011;10862;51.886;17.078;2023-02-12T06:07:27;8.57;;;7.97;;
21402;SDS011;10862;51.886;17.078;2023-02-12T06:09:53;11.90;;;10.77;;
21402;SDS011;10862;51.886;17.078;2023-02-12T06:12:19;8.57;;;8.17;;
21402;SDS011;10862;51.886;17.078;2023-02-12T06:14:45;9.67;;;9.13;;
21402;SDS011;10862;51.886;17.078;2023-02-12T06:17:11;12.77;;;10.97;;
21402;SDS011;10862;51.886;17.078;2023-02-12T06:19:37;8.17;;;7.87;;
21402;SDS011;10862;51.886;17.078;2023-02-12T06:22:03;19.20;;;10.43;;
21402;SDS011;10862;51.886;17.078;2023-02-12T06:24:29;8.90;;;8.30;;
21402;SDS011;10862;51.886;17.078;2023-02-12T06:26:54;10.27;;;9.50;;
21402;SDS011;10862;51.886;17.078;2023-02-12T06:29:20;9.17;;;8.77;;
21402;SDS011;10862;51.886;17.078;2023-02-12T06:31:46;10.57;;;10.07;;
21402;SDS011;10862;51.886;17.078;2023-02-12T06:34:13;9.53;;;9.13;;
21402;SDS011;10862;51.886;17.078;2023-02-12T06:36:42;11.80;;;11.20;;
21402;SDS011;10862;51.886;17.078;2023-02-12T06:39:09;12.90;;;12.20;;
21402;SDS011;10862;51.886;17.078;2023-02-12T06:41:39;15.30;;;14.27;;
21402;SDS011;10862;51.886;17.078;2023-02-12T06:44:05;13.37;;;12.43;;
21402;SDS011;10862;51.886;17.078;2023-02-12T06:46:31;15.23;;;14.33;;
21402;SDS011;10862;51.886;17.078;2023-02-12T06:48:58;13.80;;;13.10;;
21402;SDS011;10862;51.886;17.078;2023-02-12T06:51:25;13.73;;;13.03;;
21402;SDS011;10862;51.886;17.078;2023-02-12T06:53:52;12.43;;;11.93;;
21402;SDS011;10862;51.886;17.078;2023-02-12T06:56:19;13.90;;;13.13;;
21402;SDS011;10862;51.886;17.078;2023-02-12T06:58:46;17.90;;;16.33;;
21402;SDS011;10862;51.886;17.078;2023-02-12T07:01:20;15.13;;;14.13;;
21402;SDS011;10862;51.886;17.078;2023-02-12T07:03:50;20.17;;;18.77;;
21402;SDS011;10862;51.886;17.078;2023-02-12T07:06:24;14.13;;;13.40;;
21402;SDS011;10862;51.886;17.078;2023-02-12T07:08:51;14.77;;;13.97;;
21402;SDS011;10862;51.886;17.078;2023-02-12T07:11:16;14.53;;;13.47;;
21402;SDS011;10862;51.886;17.078;2023-02-12T07:13:43;15.20;;;14.07;;
21402;SDS011;10862;51.886;17.078;2023-02-12T07:16:10;11.97;;;11.40;;
21402;SDS011;10862;51.886;17.078;2023-02-12T07:18:38;21.53;;;12.20;;
21402;SDS011;10862;51.886;17.078;2023-02-12T07:21:04;12.43;;;11.90;;
21402;SDS011;10862;51.886;17.078;2023-02-12T07:23:31;12.77;;;12.17;;
21402;SDS011;10862;51.886;17.078;2023-02-12T07:25:58;13.50;;;12.90;;
21402;SDS011;10862;51.886;17.078;2023-02-12T07:28:25;15.93;;;14.70;;
21402;SDS011;10862;51.886;17.078;2023-02-12T07:30:52;16.37;;;15.43;;
21402;SDS011;10862;51.886;17.078;2023-02-12T07:33:18;26.93;;;16.00;;
21402;SDS011;10862;51.886;17.078;2023-02-12T07:35:45;22.03;;;20.10;;
21402;SDS011;10862;51.886;17.078;2023-02-12T07:38:11;16.60;;;15.37;;
21402;SDS011;10862;51.886;17.078;2023-02-12T07:40:37;16.93;;;15.80;;
21402;SDS011;10862;51.886;17.078;2023-02-12T07:43:03;14.67;;;13.53;;
21402;SDS011;10862;51.886;17.078;2023-02-12T07:45:28;14.20;;;13.33;;
21402;SDS011;10862;51.886;17.078;2023-02-12T07:47:54;15.80;;;14.43;;
21402;SDS011;10862;51.886;17.078;2023-02-12T07:50:20;14.33;;;13.40;;
21402;SDS011;10862;51.886;17.078;2023-02-12T07:52:47;14.33;;;13.40;;
21402;SDS011;10862;51.886;17.078;2023-02-12T07:55:14;13.00;;;12.40;;
21402;SDS011;10862;51.886;17.078;2023-02-12T07:57:40;12.20;;;11.50;;
21402;SDS011;10862;51.886;17.078;2023-02-12T08:00:06;12.77;;;11.97;;
21402;SDS011;10862;51.886;17.078;2023-02-12T08:02:33;14.03;;;13.17;;
21402;SDS011;10862;51.886;17.078;2023-02-12T08:04:58;15.80;;;14.73;;
21402;SDS011;10862;51.886;17.078;2023-02-12T08:07:24;15.53;;;14.63;;
21402;SDS011;10862;51.886;17.078;2023-02-12T08:09:50;17.30;;;16.00;;
21402;SDS011;10862;51.886;17.078;2023-02-12T08:12:16;13.33;;;12.67;;
21402;SDS011;10862;51.886;17.078;2023-02-12T08:14:42;18.37;;;17.17;;
21402;SDS011;10862;51.886;17.078;2023-02-12T08:17:08;14.37;;;13.50;;
21402;SDS011;10862;51.886;17.078;2023-02-12T08:19:34;13.37;;;12.50;;
21402;SDS011;10862;51.886;17.078;2023-02-12T08:22:00;19.70;;;17.53;;
21402;SDS011;10862;51.886;17.078;2023-02-12T08:24:30;10.33;;;9.83;;
21402;SDS011;10862;51.886;17.078;2023-02-12T08:26:56;18.43;;;16.63;;
21402;SDS011;10862;51.886;17.078;2023-02-12T08:29:22;10.90;;;10.30;;
21402;SDS011;10862;51.886;17.078;2023-02-12T08:31:53;81.63;;;38.43;;
21402;SDS011;10862;51.886;17.078;2023-02-12T08:34:24;41.57;;;34.50;;
21402;SDS011;10862;51.886;17.078;2023-02-12T08:36:55;15.53;;;14.30;;
21402;SDS011;10862;51.886;17.078;2023-02-12T08:39:22;19.40;;;17.67;;
21402;SDS011;10862;51.886;17.078;2023-02-12T08:41:49;13.13;;;12.50;;
21402;SDS011;10862;51.886;17.078;2023-02-12T08:44:17;16.87;;;15.87;;
21402;SDS011;10862;51.886;17.078;2023-02-12T08:46:44;12.40;;;11.60;;
21402;SDS011;10862;51.886;17.078;2023-02-12T08:49:15;14.83;;;13.87;;
21402;SDS011;10862;51.886;17.078;2023-02-12T08:51:49;13.93;;;12.93;;
21402;SDS011;10862;51.886;17.078;2023-02-12T08:54:21;14.13;;;13.20;;
21402;SDS011;10862;51.886;17.078;2023-02-12T08:56:48;14.30;;;13.03;;
21402;SDS011;10862;51.886;17.078;2023-02-12T08:59:14;13.77;;;12.67;;
21402;SDS011;10862;51.886;17.078;2023-02-12T09:01:40;36.27;;;13.80;;
21402;SDS011;10862;51.886;17.078;2023-02-12T09:04:12;42.87;;;28.87;;
21402;SDS011;10862;51.886;17.078;2023-02-12T09:06:41;98.40;;;43.63;;
21402;SDS011;10862;51.886;17.078;2023-02-12T09:09:07;67.70;;;32.00;;
21402;SDS011;10862;51.886;17.078;2023-02-12T09:11:33;67.43;;;30.00;;
21402;SDS011;10862;51.886;17.078;2023-02-12T09:14:01;76.67;;;34.97;;
21402;SDS011;10862;51.886;17.078;2023-02-12T09:16:29;82.73;;;39.17;;
21402;SDS011;10862;51.886;17.078;2023-02-12T09:18:56;90.67;;;47.60;;
21402;SDS011;10862;51.886;17.078;2023-02-12T09:21:22;99.37;;;47.50;;
21402;SDS011;10862;51.886;17.078;2023-02-12T09:23:48;134.17;;;55.23;;
21402;SDS011;10862;51.886;17.078;2023-02-12T09:26:15;158.43;;;57.27;;
21402;SDS011;10862;51.886;17.078;2023-02-12T09:28:45;239.40;;;88.70;;
21402;SDS011;10862;51.886;17.078;2023-02-12T09:31:12;185.83;;;77.33;;
21402;SDS011;10862;51.886;17.078;2023-02-12T09:33:40;192.90;;;79.40;;
21402;SDS011;10862;51.886;17.078;2023-02-12T09:36:07;290.93;;;110.73;;
21402;SDS011;10862;51.886;17.078;2023-02-12T09:38:38;288.57;;;122.43;;
21402;SDS011;10862;51.886;17.078;2023-02-12T09:44:20;136.37;;;60.40;;
21402;SDS011;10862;51.886;17.078;2023-02-12T09:47:12;315.00;;;112.83;;
21402;SDS011;10862;51.886;17.078;2023-02-12T09:53:09;387.77;;;149.37;;
21402;SDS011;10862;51.886;17.078;2023-02-12T09:55:39;202.80;;;92.57;;
21402;SDS011;10862;51.886;17.078;2023-02-12T09:58:09;142.23;;;70.40;;
21402;SDS011;10862;51.886;17.078;2023-02-12T10:00:40;116.60;;;57.77;;
21402;SDS011;10862;51.886;17.078;2023-02-12T10:03:10;91.03;;;44.17;;
21402;SDS011;10862;51.886;17.078;2023-02-12T10:05:41;99.97;;;40.73;;
21402;SDS011;10862;51.886;17.078;2023-02-12T10:10:53;86.80;;;38.83;;
21402;SDS011;10862;51.886;17.078;2023-02-12T10:13:58;68.07;;;29.07;;
21402;SDS011;10862;51.886;17.078;2023-02-12T10:27:35;132.23;;;51.43;;
21402;SDS011;10862;51.886;17.078;2023-02-12T10:32:42;182.57;;;79.40;;
21402;SDS011;10862;51.886;17.078;2023-02-12T10:35:14;109.90;;;48.27;;
21402;SDS011;10862;51.886;17.078;2023-02-12T10:40:25;108.87;;;65.23;;
21402;SDS011;10862;51.886;17.078;2023-02-12T10:42:54;95.60;;;48.17;;
21402;SDS011;10862;51.886;17.078;2023-02-12T10:45:31;101.97;;;51.10;;
21402;SDS011;10862;51.886;17.078;2023-02-12T10:53:08;65.70;;;34.87;;
21402;SDS011;10862;51.886;17.078;2023-02-12T10:55:42;89.93;;;51.87;;
21402;SDS011;10862;51.886;17.078;2023-02-12T10:58:18;55.83;;;28.97;;
21402;SDS011;10862;51.886;17.078;2023-02-12T11:00:46;97.80;;;45.63;;
21402;SDS011;10862;51.886;17.078;2023-02-12T11:03:22;81.70;;;36.87;;
21402;SDS011;10862;51.886;17.078;2023-02-12T11:05:52;74.07;;;37.27;;
21402;SDS011;10862;51.886;17.078;2023-02-12T11:08:36;94.30;;;44.87;;
21402;SDS011;10862;51.886;17.078;2023-02-12T11:13:38;81.60;;;44.57;;
21402;SDS011;10862;51.886;17.078;2023-02-12T11:16:08;68.43;;;33.97;;
21402;SDS011;10862;51.886;17.078;2023-02-12T11:18:34;78.17;;;38.27;;
21402;SDS011;10862;51.886;17.078;2023-02-12T11:21:05;126.40;;;81.13;;
21402;SDS011;10862;51.886;17.078;2023-02-12T11:23:34;127.53;;;63.43;;
21402;SDS011;10862;51.886;17.078;2023-02-12T11:34:13;177.33;;;72.20;;
21402;SDS011;10862;51.886;17.078;2023-02-12T11:36:42;204.60;;;82.03;;
21402;SDS011;10862;51.886;17.078;2023-02-12T11:41:52;174.40;;;78.60;;
21402;SDS011;10862;51.886;17.078;2023-02-12T11:44:27;82.60;;;38.10;;
21402;SDS011;10862;51.886;17.078;2023-02-12T11:46:59;122.30;;;47.30;;
21402;SDS011;10862;51.886;17.078;2023-02-12T11:49:32;113.93;;;46.13;;
21402;SDS011;10862;51.886;17.078;2023-02-12T11:52:17;97.90;;;40.27;;
21402;SDS011;10862;51.886;17.078;2023-02-12T11:54:50;84.93;;;36.20;;
21402;SDS011;10862;51.886;17.078;2023-02-12T11:57:54;97.67;;;40.73;;
21402;SDS011;10862;51.886;17.078;2023-02-12T12:06:12;87.27;;;35.87;;
21402;SDS011;10862;51.886;17.078;2023-02-12T12:08:44;102.40;;;36.47;;
21402;SDS011;10862;51.886;17.078;2023-02-12T12:14:36;74.57;;;30.30;;
21402;SDS011;10862;51.886;17.078;2023-02-12T12:17:34;105.40;;;40.57;;
21402;SDS011;10862;51.886;17.078;2023-02-12T12:20:22;115.60;;;41.23;;
21402;SDS011;10862;51.886;17.078;2023-02-12T12:23:01;208.37;;;101.17;;
21402;SDS011;10862;51.886;17.078;2023-02-12T12:25:48;116.23;;;51.63;;
21402;SDS011;10862;51.886;17.078;2023-02-12T12:28:23;92.87;;;40.00;;
21402;SDS011;10862;51.886;17.078;2023-02-12T12:33:30;99.73;;;49.07;;
21402;SDS011;10862;51.886;17.078;2023-02-12T12:38:51;123.07;;;51.17;;
21402;SDS011;10862;51.886;17.078;2023-02-12T12:53:10;227.67;;;103.00;;
21402;SDS011;10862;51.886;17.078;2023-02-12T13:01:36;91.67;;;41.70;;
21402;SDS011;10862;51.886;17.078;2023-02-12T13:10:02;105.33;;;51.33;;
21402;SDS011;10862;51.886;17.078;2023-02-12T13:18:19;77.93;;;43.53;;
21402;SDS011;10862;51.886;17.078;2023-02-12T13:23:45;108.67;;;44.67;;
21402;SDS011;10862;51.886;17.078;2023-02-12T13:32:01;161.17;;;54.90;;
21402;SDS011;10862;51.886;17.078;2023-02-12T13:34:31;185.00;;;56.20;;
21402;SDS011;10862;51.886;17.078;2023-02-12T13:37:00;116.20;;;44.23;;
21402;SDS011;10862;51.886;17.078;2023-02-12T13:39:35;146.97;;;51.30;;
21402;SDS011;10862;51.886;17.078;2023-02-12T13:53:15;89.53;;;43.73;;
21402;SDS011;10862;51.886;17.078;2023-02-12T13:58:47;175.10;;;69.53;;
21402;SDS011;10862;51.886;17.078;2023-02-12T14:02:00;298.70;;;99.57;;
21402;SDS011;10862;51.886;17.078;2023-02-12T14:06:38;97.97;;;41.23;;
21402;SDS011;10862;51.886;17.078;2023-02-12T14:09:21;108.53;;;53.67;;
21402;SDS011;10862;51.886;17.078;2023-02-12T14:11:59;95.07;;;44.30;;
21402;SDS011;10862;51.886;17.078;2023-02-12T14:14:28;115.17;;;53.17;;
21402;SDS011;10862;51.886;17.078;2023-02-12T14:17:14;112.40;;;51.83;;
21402;SDS011;10862;51.886;17.078;2023-02-12T14:30:34;158.20;;;60.27;;
21402;SDS011;10862;51.886;17.078;2023-02-12T14:45:52;78.10;;;37.77;;
21402;SDS011;10862;51.886;17.078;2023-02-12T14:51:03;72.13;;;34.40;;
21402;SDS011;10862;51.886;17.078;2023-02-12T14:53:33;92.70;;;36.70;;
21402;SDS011;10862;51.886;17.078;2023-02-12T14:56:01;96.27;;;41.53;;
21402;SDS011;10862;51.886;17.078;2023-02-12T14:58:28;121.67;;;48.77;;
21402;SDS011;10862;51.886;17.078;2023-02-12T15:00:56;118.97;;;46.30;;
21402;SDS011;10862;51.886;17.078;2023-02-12T15:03:47;136.03;;;50.80;;
21402;SDS011;10862;51.886;17.078;2023-02-12T15:06:25;103.33;;;41.20;;
21402;SDS011;10862;51.886;17.078;2023-02-12T15:12:06;92.57;;;36.67;;
21402;SDS011;10862;51.886;17.078;2023-02-12T15:14:41;101.17;;;41.67;;
21402;SDS011;10862;51.886;17.078;2023-02-12T15:17:24;133.37;;;57.93;;
21402;SDS011;10862;51.886;17.078;2023-02-12T15:19:56;233.10;;;85.87;;
21402;SDS011;10862;51.886;17.078;2023-02-12T15:30:42;62.43;;;28.60;;
21402;SDS011;10862;51.886;17.078;2023-02-12T15:33:15;53.87;;;27.07;;
21402;SDS011;10862;51.886;17.078;2023-02-12T15:35:48;63.33;;;30.20;;
21402;SDS011;10862;51.886;17.078;2023-02-12T15:38:17;63.83;;;30.83;;
21402;SDS011;10862;51.886;17.078;2023-02-12T15:40:56;243.00;;;128.17;;
21402;SDS011;10862;51.886;17.078;2023-02-12T15:43:25;69.93;;;33.13;;
21402;SDS011;10862;51.886;17.078;2023-02-12T15:45:59;71.83;;;32.00;;
21402;SDS011;10862;51.886;17.078;2023-02-12T15:48:31;78.27;;;34.20;;
21402;SDS011;10862;51.886;17.078;2023-02-12T15:51:32;62.77;;;31.60;;
21402;SDS011;10862;51.886;17.078;2023-02-12T15:53:53;56.10;;;28.90;;
21402;SDS011;10862;51.886;17.078;2023-02-12T15:56:22;51.80;;;24.53;;
21402;SDS011;10862;51.886;17.078;2023-02-12T15:58:53;55.93;;;28.33;;
21402;SDS011;10862;51.886;17.078;2023-02-12T16:01:24;57.10;;;28.87;;
21402;SDS011;10862;51.886;17.078;2023-02-12T16:04:06;65.47;;;30.73;;
21402;SDS011;10862;51.886;17.078;2023-02-12T16:06:33;66.70;;;32.77;;
21402;SDS011;10862;51.886;17.078;2023-02-12T16:09:01;51.53;;;28.70;;
21402;SDS011;10862;51.886;17.078;2023-02-12T16:11:28;65.27;;;30.00;;
21402;SDS011;10862;51.886;17.078;2023-02-12T16:14:03;122.50;;;44.37;;
21402;SDS011;10862;51.886;17.078;2023-02-12T16:16:39;198.83;;;66.97;;
21402;SDS011;10862;51.886;17.078;2023-02-12T16:19:23;209.47;;;70.17;;
21402;SDS011;10862;51.886;17.078;2023-02-12T16:21:54;67.23;;;31.13;;
21402;SDS011;10862;51.886;17.078;2023-02-12T16:26:57;106.17;;;46.90;;
21402;SDS011;10862;51.886;17.078;2023-02-12T16:29:32;79.03;;;32.17;;
21402;SDS011;10862;51.886;17.078;2023-02-12T16:32:01;94.50;;;39.80;;
21402;SDS011;10862;51.886;17.078;2023-02-12T16:36:55;64.33;;;30.30;;
21402;SDS011;10862;51.886;17.078;2023-02-12T16:42:18;58.60;;;26.77;;
21402;SDS011;10862;51.886;17.078;2023-02-12T16:44:48;59.57;;;25.77;;
21402;SDS011;10862;51.886;17.078;2023-02-12T16:47:18;64.00;;;31.53;;
21402;SDS011;10862;51.886;17.078;2023-02-12T16:49:59;84.17;;;41.10;;
21402;SDS011;10862;51.886;17.078;2023-02-12T16:54:54;165.87;;;87.20;;
21402;SDS011;10862;51.886;17.078;2023-02-12T16:57:20;132.53;;;49.37;;
21402;SDS011;10862;51.886;17.078;2023-02-12T16:59:45;62.80;;;30.37;;
21402;SDS011;10862;51.886;17.078;2023-02-12T17:02:12;87.87;;;34.03;;
21402;SDS011;10862;51.886;17.078;2023-02-12T17:04:39;156.60;;;55.67;;
21402;SDS011;10862;51.886;17.078;2023-02-12T17:07:24;106.50;;;40.63;;
21402;SDS011;10862;51.886;17.078;2023-02-12T17:09:53;120.63;;;46.70;;
21402;SDS011;10862;51.886;17.078;2023-02-12T17:12:18;153.23;;;50.47;;
21402;SDS011;10862;51.886;17.078;2023-02-12T17:14:44;103.23;;;40.17;;
21402;SDS011;10862;51.886;17.078;2023-02-12T17:17:12;103.43;;;40.53;;
21402;SDS011;10862;51.886;17.078;2023-02-12T17:19:37;104.30;;;45.47;;
21402;SDS011;10862;51.886;17.078;2023-02-12T17:22:03;122.13;;;53.10;;
21402;SDS011;10862;51.886;17.078;2023-02-12T17:24:32;121.10;;;52.43;;
21402;SDS011;10862;51.886;17.078;2023-02-12T17:26:59;147.03;;;52.20;;
21402;SDS011;10862;51.886;17.078;2023-02-12T17:29:26;114.07;;;42.07;;
21402;SDS011;10862;51.886;17.078;2023-02-12T17:31:52;161.60;;;54.03;;
21402;SDS011;10862;51.886;17.078;2023-02-12T17:34:20;140.73;;;47.30;;
21402;SDS011;10862;51.886;17.078;2023-02-12T17:36:46;152.23;;;55.37;;
21402;SDS011;10862;51.886;17.078;2023-02-12T17:39:13;99.47;;;36.23;;
21402;SDS011;10862;51.886;17.078;2023-02-12T17:41:39;55.47;;;27.20;;
21402;SDS011;10862;51.886;17.078;2023-02-12T17:44:06;55.23;;;25.00;;
21402;SDS011;10862;51.886;17.078;2023-02-12T17:46:32;45.10;;;22.10;;
21402;SDS011;10862;51.886;17.078;2023-02-12T17:48:57;59.33;;;27.30;;
21402;SDS011;10862;51.886;17.078;2023-02-12T17:51:23;104.17;;;42.20;;
21402;SDS011;10862;51.886;17.078;2023-02-12T17:53:49;152.03;;;56.77;;
21402;SDS011;10862;51.886;17.078;2023-02-12T17:56:17;158.40;;;56.77;;